Time;durP1;ratioP1;P1;durP2;ratioP2;P2;SDS_P1;SDS_P2;PMS_P1;PMS_P2;Temp;Humidity;BMP_temperature;BMP_pressure;BME280_temperature;BME280_humidity;BME280_pressure;Samples;Min_cycle;Max_cycle;Signal;HPM_P1;HPM_P2
2023/08/21 00:00:45;;;;;;;4.53;2.20;;;17.00;99.90;;;;;;5112763;27;20040;-55
2023/08/21 00:03:11;;;;;;;8.63;2.10;;;17.00;99.90;;;;;;5095225;28;20147;-57
2023/08/21 00:05:37;;;;;;;3.08;1.38;;;16.90;99.90;;;;;;5117669;27;20036;-56
2023/08/21 00:08:03;;;;;;;2.80;1.55;;;16.80;99.90;;;;;;5103513;28;20039;-55
2023/08/21 00:10:30;;;;;;;5.65;1.90;;;16.70;99.90;;;;;;5109142;27;20631;-59
2023/08/21 00:12:56;;;;;;;5.95;2.58;;;16.70;99.90;;;;;;5113302;28;20047;-59
2023/08/21 00:15:22;;;;;;;4.35;2.00;;;16.60;99.90;;;;;;5111697;28;20104;-59
2023/08/21 00:17:47;;;;;;;2.40;1.90;;;16.60;99.90;;;;;;5114596;28;20036;-56
2023/08/21 00:20:13;;;;;;;3.60;1.80;;;16.60;99.90;;;;;;5111692;27;20040;-57
2023/08/21 00:22:39;;;;;;;5.38;1.80;;;16.50;99.90;;;;;;5092454;27;20040;-55
2023/08/21 00:25:05;;;;;;;5.88;2.15;;;16.50;99.90;;;;;;5099897;28;20126;-57
2023/08/21 00:27:30;;;;;;;9.57;2.33;;;16.50;99.90;;;;;;5111144;28;20126;-55
2023/08/21 00:29:57;;;;;;;3.75;1.90;;;16.40;99.90;;;;;;5110859;28;20104;-56
2023/08/21 00:32:23;;;;;;;3.50;1.58;;;16.40;99.90;;;;;;5112748;28;20058;-59
2023/08/21 00:34:48;;;;;;;6.20;2.17;;;16.40;99.90;;;;;;5111169;28;20040;-59
2023/08/21 00:37:14;;;;;;;3.63;2.10;;;16.40;99.90;;;;;;5109524;28;20044;-59
2023/08/21 00:39:40;;;;;;;3.95;1.80;;;16.40;99.90;;;;;;5110248;28;20039;-59
2023/08/21 00:42:07;;;;;;;5.90;2.38;;;16.40;99.90;;;;;;5110110;28;20035;-58
2023/08/21 00:44:32;;;;;;;4.90;2.00;;;16.30;99.90;;;;;;5113183;28;20101;-55
2023/08/21 00:46:58;;;;;;;4.65;2.38;;;16.40;99.90;;;;;;5093060;28;20342;-59
2023/08/21 00:49:24;;;;;;;7.78;2.45;;;16.40;99.90;;;;;;5108440;28;20428;-58
2023/08/21 00:51:51;;;;;;;6.85;2.30;;;16.40;99.90;;;;;;5108631;28;20070;-58
2023/08/21 00:54:17;;;;;;;4.07;1.92;;;16.30;99.90;;;;;;5105691;28;20043;-58
2023/08/21 00:56:43;;;;;;;5.55;1.92;;;16.30;99.90;;;;;;5112327;28;20066;-58
2023/08/21 00:59:09;;;;;;;7.10;2.03;;;16.30;99.90;;;;;;5114319;28;20039;-58
2023/08/21 01:01:36;;;;;;;6.20;2.72;;;16.30;99.90;;;;;;5113298;28;20032;-59
2023/08/21 01:04:03;;;;;;;3.38;2.00;;;16.30;99.90;;;;;;5110831;28;20235;-59
2023/08/21 01:06:29;;;;;;;4.35;1.77;;;16.20;99.90;;;;;;5110918;28;20575;-57
2023/08/21 01:09:07;;;;;;;3.10;2.10;;;16.20;99.90;;;;;;5096963;28;20052;-56
2023/08/21 01:11:49;;;;;;;5.93;2.10;;;16.20;99.90;;;;;;5115623;28;20036;-57
2023/08/21 01:15:04;;;;;;;4.38;2.30;;;16.10;99.90;;;;;;5113001;28;20031;-58
2023/08/21 01:17:30;;;;;;;3.08;1.58;;;16.10;99.90;;;;;;5096276;28;25347;-59
2023/08/21 01:19:56;;;;;;;2.70;1.48;;;16.00;99.90;;;;;;5115067;28;20052;-57
2023/08/21 01:22:27;;;;;;;1.58;1.00;;;16.00;99.90;;;;;;5118521;28;20087;-54
2023/08/21 01:24:54;;;;;;;1.77;1.40;;;16.00;99.90;;;;;;5117203;28;20036;-58
2023/08/21 01:27:21;;;;;;;2.30;1.60;;;16.00;99.90;;;;;;5118946;27;20047;-59
2023/08/21 01:29:47;;;;;;;6.25;2.92;;;15.90;99.90;;;;;;5121428;27;20657;-58
2023/08/21 01:32:38;;;;;;;6.22;2.83;;;15.90;99.90;;;;;;5114418;28;20086;-58
2023/08/21 01:35:05;;;;;;;3.80;2.30;;;15.90;99.90;;;;;;5116186;27;20036;-59
2023/08/21 01:37:31;;;;;;;6.93;2.80;;;15.90;99.90;;;;;;5100214;27;20016;-59
2023/08/21 01:40:00;;;;;;;4.43;2.83;;;15.80;99.90;;;;;;5117124;28;20095;-58
2023/08/21 01:42:26;;;;;;;3.88;2.05;;;15.80;99.90;;;;;;5118007;27;20044;-58
2023/08/21 01:44:51;;;;;;;1.60;1.40;;;15.80;99.90;;;;;;5117476;27;20088;-57
2023/08/21 01:47:17;;;;;;;1.45;1.20;;;15.70;99.90;;;;;;5119667;27;20091;-56
2023/08/21 01:49:43;;;;;;;2.97;1.25;;;15.70;99.90;;;;;;5120013;28;20110;-59
2023/08/21 01:52:08;;;;;;;1.42;1.17;;;15.70;99.90;;;;;;5117463;27;20035;-57
2023/08/21 01:54:35;;;;;;;4.18;1.30;;;15.70;99.90;;;;;;5097842;28;20040;-59
2023/08/21 01:57:00;;;;;;;1.33;1.10;;;15.60;99.90;;;;;;5117491;27;20036;-55
2023/08/21 01:59:26;;;;;;;3.08;1.40;;;15.60;99.90;;;;;;5114742;27;20094;-59
2023/08/21 02:01:53;;;;;;;1.70;1.55;;;15.60;99.90;;;;;;5112421;28;20096;-56
2023/08/21 02:04:19;;;;;;;4.38;1.90;;;15.60;99.90;;;;;;5113315;28;20044;-59
2023/08/21 02:06:45;;;;;;;3.17;1.85;;;15.60;99.90;;;;;;5094839;28;20120;-59
2023/08/21 02:09:10;;;;;;;4.63;2.28;;;15.60;99.90;;;;;;5112649;27;20047;-57
2023/08/21 02:11:36;;;;;;;5.03;2.33;;;15.60;99.90;;;;;;5117007;27;20126;-58
2023/08/21 02:14:02;;;;;;;3.40;2.30;;;15.60;99.90;;;;;;5112872;27;20043;-59
2023/08/21 02:16:28;;;;;;;3.60;2.10;;;15.60;99.90;;;;;;5111881;27;20070;-58
2023/08/21 02:18:54;;;;;;;4.20;1.98;;;15.50;99.90;;;;;;5113332;27;20138;-57
2023/08/21 02:21:20;;;;;;;2.90;1.90;;;15.50;99.90;;;;;;5115893;27;20630;-55
2023/08/21 02:23:46;;;;;;;3.83;2.03;;;15.50;99.90;;;;;;5115740;27;20044;-56
2023/08/21 02:26:12;;;;;;;3.35;2.40;;;15.40;99.90;;;;;;5116621;28;20032;-58
2023/08/21 02:28:37;;;;;;;3.55;2.17;;;15.40;99.90;;;;;;5115073;28;20116;-59
2023/08/21 02:31:04;;;;;;;4.57;2.20;;;15.40;99.90;;;;;;5113816;27;20069;-59
2023/08/21 02:33:30;;;;;;;2.67;1.83;;;15.30;99.90;;;;;;5115375;27;20610;-58
2023/08/21 02:35:56;;;;;;;3.80;1.90;;;15.30;99.90;;;;;;5114787;28;20084;-58
2023/08/21 02:38:22;;;;;;;3.20;1.70;;;15.30;99.90;;;;;;5112497;28;20039;-58
2023/08/21 02:40:48;;;;;;;3.83;1.90;;;15.20;99.90;;;;;;5113829;27;20036;-57
2023/08/21 02:43:14;;;;;;;1.65;1.30;;;15.20;99.90;;;;;;5111845;27;20074;-58
2023/08/21 02:45:40;;;;;;;2.67;1.13;;;15.20;99.90;;;;;;5111253;27;20081;-56
2023/08/21 02:48:05;;;;;;;2.20;1.13;;;15.20;99.90;;;;;;5094909;28;20077;-59
2023/08/21 02:50:31;;;;;;;3.65;1.60;;;15.10;99.90;;;;;;5110087;28;20036;-59
2023/08/21 02:52:57;;;;;;;3.50;1.38;;;15.10;99.90;;;;;;5110439;27;20047;-58
2023/08/21 02:55:22;;;;;;;2.38;1.30;;;15.10;99.90;;;;;;5111104;28;20039;-58
2023/08/21 02:57:48;;;;;;;2.35;1.30;;;15.10;99.90;;;;;;5112101;28;20044;-58
2023/08/21 03:00:14;;;;;;;2.63;1.45;;;15.00;99.90;;;;;;5112948;27;20070;-58
2023/08/21 03:02:42;;;;;;;3.60;1.63;;;15.00;99.90;;;;;;5091301;28;20039;-58
2023/08/21 03:05:09;;;;;;;1.90;1.10;;;15.00;99.90;;;;;;5094064;28;20047;-58
2023/08/21 03:07:35;;;;;;;3.05;1.10;;;15.00;99.90;;;;;;5111167;27;20058;-59
2023/08/21 03:10:02;;;;;;;5.43;2.30;;;14.90;99.90;;;;;;5106429;28;20545;-58
2023/08/21 03:12:28;;;;;;;4.47;2.55;;;14.90;99.90;;;;;;5107070;28;20047;-58
2023/08/21 03:14:53;;;;;;;5.55;2.63;;;14.90;99.90;;;;;;5110340;27;20044;-59
2023/08/21 03:17:19;;;;;;;4.10;2.05;;;14.90;99.90;;;;;;5108829;28;20043;-57
2023/08/21 03:19:45;;;;;;;5.38;1.70;;;14.90;99.90;;;;;;5109671;27;20047;-57
2023/08/21 03:22:11;;;;;;;3.72;1.95;;;14.90;99.90;;;;;;5109240;27;20126;-58
2023/08/21 03:24:37;;;;;;;3.10;1.80;;;14.80;99.90;;;;;;5110293;28;20074;-55
2023/08/21 03:27:03;;;;;;;4.82;2.17;;;14.80;99.90;;;;;;5113159;27;20104;-59
2023/08/21 03:29:29;;;;;;;3.00;2.10;;;14.80;99.90;;;;;;5112241;27;21254;-57
2023/08/21 03:31:54;;;;;;;4.75;2.15;;;14.70;99.90;;;;;;5113369;27;20043;-58
2023/08/21 03:34:20;;;;;;;3.83;2.70;;;14.70;99.90;;;;;;5111314;27;20036;-56
2023/08/21 03:36:46;;;;;;;7.53;3.30;;;14.70;99.90;;;;;;5111044;27;20035;-58
2023/08/21 03:39:11;;;;;;;8.10;3.47;;;14.70;99.90;;;;;;5112155;27;20032;-57
2023/08/21 03:41:37;;;;;;;6.15;3.22;;;14.70;99.90;;;;;;5109937;27;20040;-59
2023/08/21 03:44:03;;;;;;;9.55;3.63;;;14.70;99.90;;;;;;5110115;27;20584;-58
2023/08/21 03:46:29;;;;;;;5.93;3.50;;;14.70;99.90;;;;;;5092454;28;20127;-55
2023/08/21 03:48:54;;;;;;;6.63;3.50;;;14.80;99.90;;;;;;5111404;27;20057;-59
2023/08/21 03:51:20;;;;;;;3.60;2.70;;;14.80;99.90;;;;;;5113426;27;20036;-55
2023/08/21 03:53:46;;;;;;;3.75;2.80;;;14.70;99.90;;;;;;5091310;28;20036;-58
2023/08/21 03:56:11;;;;;;;5.13;2.63;;;14.70;99.90;;;;;;5111085;27;20048;-59
2023/08/21 03:58:37;;;;;;;5.80;2.50;;;14.60;99.90;;;;;;5115004;27;20391;-57
2023/08/21 04:01:03;;;;;;;3.15;2.70;;;14.60;99.90;;;;;;5111589;27;20039;-57
2023/08/21 04:03:29;;;;;;;4.38;3.42;;;14.60;99.90;;;;;;5111169;28;20544;-56
2023/08/21 04:05:56;;;;;;;5.50;3.30;;;14.50;99.90;;;;;;5111515;28;20054;-58
2023/08/21 04:08:22;;;;;;;5.78;3.70;;;14.50;99.90;;;;;;5109568;28;20555;-59
2023/08/21 04:10:48;;;;;;;6.20;3.75;;;14.50;99.90;;;;;;5111420;27;20526;-59
2023/08/21 04:13:13;;;;;;;4.90;3.22;;;14.50;99.90;;;;;;5112361;27;20044;-56
2023/08/21 04:15:44;;;;;;;4.30;3.35;;;14.50;99.90;;;;;;5113545;28;20036;-59
2023/08/21 04:18:10;;;;;;;4.97;3.72;;;14.50;99.90;;;;;;5114453;27;20039;-59
2023/08/21 04:20:36;;;;;;;5.68;3.60;;;14.40;99.90;;;;;;5112069;28;20103;-56
2023/08/21 04:23:02;;;;;;;4.95;3.22;;;14.40;99.90;;;;;;5111816;28;20629;-58
2023/08/21 04:25:28;;;;;;;6.53;4.10;;;14.40;99.90;;;;;;5112828;28;20039;-58
2023/08/21 04:27:53;;;;;;;6.18;3.92;;;14.40;99.90;;;;;;5114726;28;20039;-58
2023/08/21 04:30:19;;;;;;;7.15;4.10;;;14.50;99.90;;;;;;5112929;28;20071;-59
2023/08/21 04:32:45;;;;;;;8.18;4.00;;;14.50;99.90;;;;;;5114666;27;20044;-57
2023/08/21 04:35:11;;;;;;;7.03;4.30;;;14.50;99.90;;;;;;5112218;28;20044;-58
2023/08/21 04:37:42;;;;;;;5.70;3.85;;;14.60;99.90;;;;;;5113147;28;20039;-59
2023/08/21 04:40:09;;;;;;;5.57;3.65;;;14.60;99.90;;;;;;5113321;28;20034;-58
2023/08/21 04:42:34;;;;;;;6.95;3.60;;;14.60;99.90;;;;;;5110788;28;20096;-58
2023/08/21 04:45:02;;;;;;;11.60;4.15;;;14.60;99.90;;;;;;5097422;28;20105;-58
2023/08/21 04:47:28;;;;;;;5.60;3.28;;;14.60;99.90;;;;;;5112383;27;20105;-58
2023/08/21 04:49:55;;;;;;;9.23;3.72;;;14.60;99.90;;;;;;5115458;27;20036;-58
2023/08/21 04:52:21;;;;;;;6.95;3.40;;;14.60;99.90;;;;;;5113117;28;20043;-57
2023/08/21 04:54:50;;;;;;;8.13;4.00;;;14.60;99.90;;;;;;5095433;28;20063;-58
2023/08/21 04:57:17;;;;;;;6.65;3.85;;;14.60;99.90;;;;;;5115190;28;20260;-57
2023/08/21 04:59:45;;;;;;;5.57;3.65;;;14.60;99.90;;;;;;5096942;28;20119;-58
2023/08/21 05:02:11;;;;;;;9.43;4.05;;;14.60;99.90;;;;;;5112683;28;20039;-56
2023/08/21 05:04:37;;;;;;;9.93;4.55;;;14.70;99.90;;;;;;5103188;28;20115;-59
2023/08/21 05:07:04;;;;;;;9.02;4.13;;;14.70;99.90;;;;;;5114485;28;20028;-57
2023/08/21 05:09:30;;;;;;;10.13;4.18;;;14.70;99.90;;;;;;5113331;28;20044;-57
2023/08/21 05:11:56;;;;;;;9.13;3.72;;;14.80;99.90;;;;;;5113777;28;20404;-59
2023/08/21 05:14:22;;;;;;;7.97;4.07;;;14.80;99.90;;;;;;5113273;28;20119;-58
2023/08/21 05:16:49;;;;;;;6.75;3.60;;;14.80;99.90;;;;;;5114582;28;20044;-56
2023/08/21 05:19:15;;;;;;;8.85;3.97;;;14.90;99.90;;;;;;5095267;28;20462;-59
2023/08/21 05:21:40;;;;;;;9.38;4.18;;;14.90;99.90;;;;;;5111608;28;20054;-58
2023/08/21 05:24:06;;;;;;;8.52;4.45;;;14.90;99.90;;;;;;5112469;28;20377;-59
2023/08/21 05:26:32;;;;;;;8.73;4.15;;;15.00;99.90;;;;;;5094850;28;20127;-58
2023/08/21 05:28:58;;;;;;;12.25;4.28;;;15.00;99.90;;;;;;5112006;28;20185;-58
2023/08/21 05:31:23;;;;;;;9.75;3.78;;;15.00;99.90;;;;;;5109967;28;20325;-56
2023/08/21 05:33:49;;;;;;;12.60;5.00;;;15.10;99.90;;;;;;5091373;28;20078;-59
2023/08/21 05:36:15;;;;;;;9.70;4.22;;;15.10;99.90;;;;;;5093647;28;20038;-56
2023/08/21 05:38:40;;;;;;;9.25;4.03;;;15.10;99.90;;;;;;5112523;28;20093;-59
2023/08/21 05:41:06;;;;;;;9.85;4.25;;;15.20;99.90;;;;;;5112208;28;20036;-56
2023/08/21 05:43:33;;;;;;;7.50;4.15;;;15.20;99.90;;;;;;5110357;28;20040;-60
2023/08/21 05:45:58;;;;;;;12.45;4.95;;;15.30;99.90;;;;;;5110464;28;20056;-57
2023/08/21 05:48:24;;;;;;;6.85;3.97;;;15.40;99.90;;;;;;5109938;28;20455;-59
2023/08/21 05:50:53;;;;;;;7.95;4.10;;;15.40;99.90;;;;;;5107841;28;20039;-59
2023/08/21 05:53:19;;;;;;;9.52;4.07;;;15.40;99.90;;;;;;5107286;28;20040;-59
2023/08/21 05:55:44;;;;;;;12.52;4.57;;;15.50;99.90;;;;;;5105415;28;20039;-59
2023/08/21 05:58:10;;;;;;;13.05;3.92;;;15.50;99.90;;;;;;5106623;28;20040;-58
2023/08/21 06:00:38;;;;;;;12.38;4.20;;;15.60;99.90;;;;;;5089257;28;20042;-58
2023/08/21 06:03:04;;;;;;;7.85;4.15;;;15.60;99.90;;;;;;5107187;28;20501;-58
2023/08/21 06:05:30;;;;;;;8.13;4.10;;;15.70;99.90;;;;;;5106525;28;20044;-56
2023/08/21 06:07:56;;;;;;;9.02;4.22;;;15.70;99.90;;;;;;5108963;28;20054;-59
2023/08/21 06:10:21;;;;;;;10.95;4.72;;;15.80;99.90;;;;;;5113214;27;20039;-58
2023/08/21 06:12:48;;;;;;;12.35;4.07;;;15.90;99.90;;;;;;5110392;28;20040;-57
2023/08/21 06:15:14;;;;;;;14.80;4.60;;;16.00;99.90;;;;;;5113711;27;20578;-58
2023/08/21 06:17:41;;;;;;;12.20;4.20;;;16.10;99.90;;;;;;5111545;27;20035;-59
2023/08/21 06:20:13;;;;;;;10.50;4.22;;;16.10;99.90;;;;;;5111615;28;20039;-57
2023/08/21 06:22:39;;;;;;;6.95;3.95;;;16.20;99.90;;;;;;5109528;28;20065;-59
2023/08/21 06:25:05;;;;;;;9.25;4.20;;;16.30;99.90;;;;;;5111018;28;20035;-60
2023/08/21 06:27:31;;;;;;;12.40;4.47;;;16.40;99.90;;;;;;5111690;27;20040;-59
2023/08/21 06:29:57;;;;;;;7.75;4.22;;;16.40;99.90;;;;;;5110419;27;20035;-57
2023/08/21 06:32:23;;;;;;;7.63;3.58;;;16.50;99.90;;;;;;5109136;27;20040;-59
2023/08/21 06:34:48;;;;;;;8.93;4.00;;;16.50;99.90;;;;;;5108288;28;20120;-56
2023/08/21 06:37:14;;;;;;;7.28;3.35;;;16.70;99.90;;;;;;5108165;28;20028;-60
2023/08/21 06:39:40;;;;;;;9.32;3.60;;;16.70;99.90;;;;;;5098655;28;20273;-57
2023/08/21 06:42:05;;;;;;;9.40;3.30;;;16.80;99.90;;;;;;5113223;27;20035;-60
2023/08/21 06:44:31;;;;;;;10.27;3.42;;;16.90;99.90;;;;;;5095249;28;20039;-59
2023/08/21 06:46:57;;;;;;;11.15;3.17;;;17.00;99.90;;;;;;5113536;28;20048;-60
2023/08/21 06:49:23;;;;;;;8.38;3.30;;;17.10;99.90;;;;;;5113346;28;20187;-59
2023/08/21 06:51:49;;;;;;;11.18;2.90;;;17.20;99.90;;;;;;5116143;27;20405;-59
2023/08/21 06:54:15;;;;;;;8.73;3.13;;;17.30;99.90;;;;;;5115248;27;20040;-58
2023/08/21 06:56:41;;;;;;;7.53;3.05;;;17.40;99.90;;;;;;5101370;27;20044;-57
2023/08/21 06:59:06;;;;;;;9.65;3.20;;;17.50;99.90;;;;;;5114061;27;20043;-58
2023/08/21 07:01:32;;;;;;;6.55;2.90;;;17.60;99.90;;;;;;5113684;27;20035;-57
2023/08/21 07:03:58;;;;;;;7.75;2.85;;;17.70;99.90;;;;;;5111837;27;20044;-57
2023/08/21 07:06:24;;;;;;;10.20;2.85;;;17.80;99.90;;;;;;5112137;28;20498;-60
2023/08/21 07:08:49;;;;;;;9.10;2.65;;;17.90;99.90;;;;;;5112901;27;20106;-58
2023/08/21 07:11:17;;;;;;;6.55;2.67;;;18.00;99.90;;;;;;5112802;27;20040;-59
2023/08/21 07:13:43;;;;;;;9.82;2.28;;;18.10;99.90;;;;;;5094405;28;20036;-59
2023/08/21 07:16:08;;;;;;;8.65;2.25;;;18.20;99.90;;;;;;5112594;28;20116;-59
2023/08/21 07:18:35;;;;;;;5.90;2.40;;;18.30;99.90;;;;;;5110948;28;20059;-58
2023/08/21 07:21:04;;;;;;;6.45;2.40;;;18.40;99.90;;;;;;5110972;28;20039;-59
2023/08/21 07:23:31;;;;;;;4.85;1.80;;;18.50;99.90;;;;;;5112098;27;20489;-59
2023/08/21 07:25:57;;;;;;;7.53;2.22;;;18.60;99.90;;;;;;5111351;28;20043;-56
2023/08/21 07:28:23;;;;;;;12.00;3.08;;;18.70;99.90;;;;;;5112686;28;20490;-59
2023/08/21 07:30:56;;;;;;;4.53;1.98;;;18.80;99.90;;;;;;5077792;28;20135;-59
2023/08/21 07:33:22;;;;;;;6.18;1.77;;;18.90;99.90;;;;;;5091318;28;20036;-54
2023/08/21 07:35:56;;;;;;;11.00;2.08;;;19.10;99.90;;;;;;5111865;27;20098;-58
2023/08/21 07:38:21;;;;;;;5.68;1.50;;;19.20;99.90;;;;;;5112539;28;20039;-58
2023/08/21 07:40:48;;;;;;;7.15;1.58;;;19.30;99.90;;;;;;5098783;28;20062;-59
2023/08/21 07:43:14;;;;;;;7.32;2.03;;;19.40;99.90;;;;;;5111678;28;20051;-59
2023/08/21 07:45:40;;;;;;;4.65;1.90;;;19.50;99.90;;;;;;5112788;27;20089;-60
2023/08/21 07:48:06;;;;;;;6.65;1.60;;;19.60;99.90;;;;;;5112078;27;21128;-60
2023/08/21 07:50:31;;;;;;;4.88;2.05;;;19.70;99.90;;;;;;5110412;28;20043;-59
2023/08/21 07:52:57;;;;;;;5.55;1.60;;;19.90;99.90;;;;;;5090533;28;20052;-58
2023/08/21 07:55:23;;;;;;;5.00;1.40;;;20.00;99.90;;;;;;5111104;28;20039;-60
2023/08/21 07:57:49;;;;;;;4.47;1.40;;;20.10;99.90;;;;;;5112588;27;20094;-59
2023/08/21 08:00:15;;;;;;;4.43;1.40;;;20.30;99.90;;;;;;5110668;27;20032;-59
2023/08/21 08:02:40;;;;;;;5.40;1.67;;;20.30;99.90;;;;;;5110858;28;20367;-60
2023/08/21 08:05:07;;;;;;;6.65;1.70;;;20.40;99.90;;;;;;5112299;27;20059;-60
2023/08/21 08:07:32;;;;;;;4.68;1.30;;;20.60;99.90;;;;;;5109661;28;20039;-59
2023/08/21 08:09:58;;;;;;;5.97;1.45;;;20.70;99.90;;;;;;5110097;28;20123;-59
2023/08/21 08:12:24;;;;;;;4.00;1.50;;;20.80;99.90;;;;;;5075877;27;20035;-60
2023/08/21 08:14:50;;;;;;;4.03;1.33;;;20.90;99.90;;;;;;5110485;28;20291;-56
2023/08/21 08:17:16;;;;;;;4.78;1.60;;;21.00;99.90;;;;;;5090568;28;20051;-60
2023/08/21 08:19:42;;;;;;;5.43;1.70;;;21.10;99.90;;;;;;5107550;28;20043;-57
2023/08/21 08:22:07;;;;;;;4.85;1.30;;;21.30;99.90;;;;;;5107926;27;20070;-57
2023/08/21 08:24:33;;;;;;;3.80;1.40;;;21.40;99.90;;;;;;5089162;28;20470;-59
2023/08/21 08:26:59;;;;;;;4.88;1.55;;;21.50;99.90;;;;;;5108613;27;20664;-60
2023/08/21 08:29:24;;;;;;;4.78;1.52;;;21.60;99.90;;;;;;5107517;28;20035;-58
2023/08/21 08:31:50;;;;;;;3.25;1.30;;;21.70;99.90;;;;;;5086703;28;20047;-59
2023/08/21 08:34:20;;;;;;;5.43;1.30;;;21.80;99.90;;;;;;5107205;28;20039;-59
2023/08/21 08:36:46;;;;;;;5.13;1.40;;;21.90;99.90;;;;;;5106890;28;20058;-57
2023/08/21 08:39:11;;;;;;;5.82;1.40;;;22.10;99.90;;;;;;5107699;28;20031;-60
2023/08/21 08:41:58;;;;;;;5.72;1.50;;;22.20;99.90;;;;;;5105797;28;20508;-58
2023/08/21 08:44:26;;;;;;;5.40;1.40;;;22.30;99.90;;;;;;5107134;28;20526;-59
2023/08/21 08:46:52;;;;;;;4.65;1.38;;;22.40;99.90;;;;;;5093061;28;20470;-59
2023/08/21 08:49:19;;;;;;;4.70;1.50;;;22.50;99.90;;;;;;5087694;28;20752;-58
2023/08/21 08:51:46;;;;;;;7.47;1.50;;;22.60;99.90;;;;;;5070023;28;20040;-59
2023/08/21 08:54:12;;;;;;;5.80;1.52;;;22.70;99.90;;;;;;5087016;28;20048;-60
2023/08/21 08:56:38;;;;;;;3.83;1.20;;;22.80;99.90;;;;;;5086942;28;20044;-56
2023/08/21 08:59:05;;;;;;;4.72;1.30;;;22.90;99.90;;;;;;5085317;28;20046;-60
2023/08/21 09:01:31;;;;;;;3.55;1.55;;;22.90;99.90;;;;;;5084111;28;20036;-60
2023/08/21 09:03:56;;;;;;;5.28;1.60;;;23.10;99.90;;;;;;5085847;28;20136;-59
2023/08/21 09:06:22;;;;;;;4.22;1.08;;;23.10;99.90;;;;;;5085476;28;20404;-59
2023/08/21 09:08:55;;;;;;;3.42;1.08;;;23.20;99.90;;;;;;5085408;28;20044;-60
2023/08/21 09:11:21;;;;;;;5.40;1.42;;;23.30;99.90;;;;;;5085532;28;20429;-59
2023/08/21 09:13:50;;;;;;;5.15;1.20;;;23.40;99.90;;;;;;5085673;28;20061;-60
2023/08/21 09:16:19;;;;;;;3.05;1.30;;;23.60;99.90;;;;;;5086030;28;20070;-57
2023/08/21 09:18:59;;;;;;;6.93;1.58;;;23.70;99.90;;;;;;5086335;28;20047;-60
2023/08/21 09:21:27;;;;;;;3.90;1.08;;;23.80;99.90;;;;;;5085253;28;20051;-60
2023/08/21 09:24:00;;;;;;;5.10;1.42;;;23.90;99.90;;;;;;5087596;28;20052;-60
2023/08/21 09:26:26;;;;;;;3.45;1.17;;;24.00;99.90;;;;;;5085438;28;20052;-57
2023/08/21 09:28:53;;;;;;;3.95;1.20;;;24.10;99.90;;;;;;5087638;28;20491;-60
2023/08/21 09:31:33;;;;;;;5.97;1.10;;;24.20;99.20;;;;;;5069337;28;20045;-58
2023/08/21 09:34:06;;;;;;;4.78;1.23;;;24.30;99.10;;;;;;5087505;28;20055;-60
2023/08/21 09:36:35;;;;;;;3.58;1.17;;;24.40;99.30;;;;;;5086529;28;20025;-59
2023/08/21 09:39:02;;;;;;;4.18;1.20;;;24.60;99.00;;;;;;5089054;28;20051;-58
2023/08/21 09:41:28;;;;;;;3.53;1.20;;;24.70;99.20;;;;;;5088784;28;20036;-60
2023/08/21 09:44:03;;;;;;;8.07;1.33;;;24.90;98.50;;;;;;5091499;28;20044;-60
2023/08/21 09:46:29;;;;;;;3.80;1.17;;;25.00;97.60;;;;;;5102451;28;20067;-60
2023/08/21 09:48:55;;;;;;;3.83;1.20;;;25.00;97.30;;;;;;5113083;27;20052;-60
2023/08/21 09:51:22;;;;;;;7.53;1.40;;;25.10;97.50;;;;;;5112741;27;20079;-60
2023/08/21 09:53:53;;;;;;;3.83;1.10;;;25.30;97.00;;;;;;5094910;27;20076;-57
2023/08/21 09:56:19;;;;;;;2.80;1.20;;;25.40;96.40;;;;;;5110750;28;20028;-58
2023/08/21 09:58:47;;;;;;;5.72;1.40;;;25.50;95.60;;;;;;5093120;28;20095;-60
2023/08/21 10:01:14;;;;;;;3.83;1.20;;;25.50;95.40;;;;;;5094992;28;20047;-60
2023/08/21 10:03:42;;;;;;;5.10;1.40;;;25.70;95.20;;;;;;5112583;27;20524;-60
2023/08/21 10:06:12;;;;;;;3.70;1.10;;;25.80;95.20;;;;;;5092692;28;20055;-59
2023/08/21 10:08:44;;;;;;;4.30;1.10;;;25.90;94.60;;;;;;5110986;27;20087;-60
2023/08/21 10:11:10;;;;;;;5.20;1.30;;;26.00;94.00;;;;;;5108662;27;20087;-60
2023/08/21 10:13:38;;;;;;;4.35;1.40;;;26.10;94.60;;;;;;5108116;27;20371;-60
2023/08/21 10:16:05;;;;;;;4.75;1.40;;;26.20;94.40;;;;;;5109212;27;20036;-60
2023/08/21 10:18:33;;;;;;;5.28;1.40;;;26.40;94.10;;;;;;5107613;27;20032;-58
2023/08/21 10:21:25;;;;;;;4.95;1.55;;;26.60;93.70;;;;;;5107061;28;20075;-60
2023/08/21 10:23:55;;;;;;;4.35;1.10;;;26.70;94.10;;;;;;5104023;27;20455;-60
2023/08/21 10:26:22;;;;;;;2.75;1.10;;;26.80;92.80;;;;;;5086285;28;20039;-60
2023/08/21 10:28:59;;;;;;;3.08;1.30;;;26.80;91.90;;;;;;5104154;28;20047;-60
2023/08/21 10:31:33;;;;;;;4.13;1.30;;;26.90;91.60;;;;;;5089513;28;20073;-60
2023/08/21 10:34:01;;;;;;;3.65;1.40;;;27.00;91.10;;;;;;5106166;28;20488;-60
2023/08/21 10:36:45;;;;;;;5.20;1.50;;;27.00;90.60;;;;;;5102394;28;20040;-57
2023/08/21 10:39:14;;;;;;;7.28;1.30;;;27.00;90.40;;;;;;5106213;27;20114;-61
2023/08/21 10:41:41;;;;;;;4.43;1.23;;;27.10;88.50;;;;;;5104867;27;20047;-61
2023/08/21 10:44:08;;;;;;;3.38;1.10;;;27.10;89.40;;;;;;5104254;27;20493;-58
2023/08/21 10:46:52;;;;;;;3.83;1.20;;;27.20;88.20;;;;;;5103146;27;20081;-59
2023/08/21 10:49:18;;;;;;;4.33;1.33;;;27.30;89.10;;;;;;5107686;27;20536;-58
2023/08/21 10:51:44;;;;;;;5.32;1.30;;;27.50;88.50;;;;;;5108483;27;20035;-60
2023/08/21 10:54:14;;;;;;;3.15;1.42;;;27.60;86.00;;;;;;5088669;27;20054;-61
2023/08/21 10:56:39;;;;;;;3.22;1.20;;;27.70;84.30;;;;;;5105043;28;20480;-60
2023/08/21 10:59:05;;;;;;;3.00;1.17;;;27.80;85.50;;;;;;5104255;27;20048;-60
2023/08/21 11:01:44;;;;;;;4.15;1.10;;;27.90;85.40;;;;;;5104504;28;20047;-60
2023/08/21 11:04:11;;;;;;;3.95;1.15;;;28.10;84.90;;;;;;5106304;27;20043;-60
2023/08/21 11:06:38;;;;;;;2.80;1.10;;;28.20;83.60;;;;;;5105714;28;20884;-61
2023/08/21 11:09:05;;;;;;;4.78;1.27;;;28.30;83.40;;;;;;5106658;28;20051;-60
2023/08/21 11:11:31;;;;;;;3.17;1.30;;;28.50;82.70;;;;;;5105862;27;20036;-61
2023/08/21 11:13:57;;;;;;;4.82;1.48;;;28.60;82.40;;;;;;5108213;28;20047;-59
2023/08/21 11:16:25;;;;;;;3.17;1.05;;;28.70;81.80;;;;;;5089380;28;20046;-60
2023/08/21 11:18:50;;;;;;;5.85;1.30;;;28.60;80.30;;;;;;5105851;27;20043;-59
2023/08/21 11:21:16;;;;;;;2.83;1.30;;;28.60;79.30;;;;;;5086736;28;20074;-61
2023/08/21 11:23:42;;;;;;;4.13;1.30;;;28.70;78.80;;;;;;5106663;27;20035;-61
2023/08/21 11:26:11;;;;;;;2.92;1.20;;;28.70;77.90;;;;;;5105750;27;20035;-61
2023/08/21 11:28:38;;;;;;;5.50;1.83;;;28.80;79.10;;;;;;5106811;27;20458;-60
2023/08/21 11:31:05;;;;;;;3.83;1.23;;;28.90;77.20;;;;;;5106302;28;20131;-60
2023/08/21 11:33:31;;;;;;;5.55;1.50;;;29.00;76.40;;;;;;5106521;27;20050;-59
2023/08/21 11:35:59;;;;;;;7.35;1.35;;;29.10;75.50;;;;;;5106101;28;20043;-60
2023/08/21 11:38:27;;;;;;;3.40;1.40;;;29.00;75.90;;;;;;5106413;27;20068;-60
2023/08/21 11:41:02;;;;;;;4.40;1.40;;;29.10;75.30;;;;;;5088885;28;20039;-59
2023/08/21 11:43:39;;;;;;;3.42;1.25;;;28.90;74.30;;;;;;5104439;28;20078;-61
2023/08/21 11:46:06;;;;;;;5.13;1.35;;;28.90;75.40;;;;;;5104181;27;20153;-58
2023/08/21 11:48:33;;;;;;;3.10;1.30;;;29.00;75.40;;;;;;5103137;28;20055;-58
2023/08/21 11:50:58;;;;;;;3.60;1.20;;;29.10;74.60;;;;;;5106923;28;20103;-61
2023/08/21 11:53:39;;;;;;;4.88;1.08;;;29.30;73.70;;;;;;5105503;28;20140;-61
2023/08/21 11:56:14;;;;;;;3.80;1.13;;;29.30;73.00;;;;;;5103987;28;20158;-61
2023/08/21 11:58:48;;;;;;;3.05;1.40;;;29.10;72.80;;;;;;5104344;28;20027;-61
2023/08/21 12:01:18;;;;;;;4.07;1.30;;;28.80;73.00;;;;;;5106699;27;20035;-61
2023/08/21 12:03:44;;;;;;;2.80;0.85;;;28.70;73.50;;;;;;5106125;27;20063;-60
2023/08/21 12:06:12;;;;;;;4.75;1.60;;;28.70;73.60;;;;;;5105886;27;20070;-60
2023/08/21 12:08:38;;;;;;;3.88;1.30;;;28.80;74.70;;;;;;5106765;27;20071;-60
2023/08/21 12:11:05;;;;;;;4.07;1.00;;;28.80;72.50;;;;;;5106843;27;20039;-61
2023/08/21 12:13:31;;;;;;;6.03;1.40;;;29.00;73.30;;;;;;5089892;28;20032;-61
2023/08/21 12:15:57;;;;;;;3.63;1.23;;;29.30;72.10;;;;;;5102718;28;20147;-59
2023/08/21 12:18:23;;;;;;;5.47;1.42;;;29.50;70.90;;;;;;5103278;28;20065;-60
2023/08/21 12:20:49;;;;;;;6.85;1.40;;;29.40;69.20;;;;;;5101859;27;20315;-61
2023/08/21 12:23:15;;;;;;;5.85;1.60;;;29.40;70.20;;;;;;5104310;28;20043;-60
2023/08/21 12:25:41;;;;;;;6.90;1.42;;;29.60;69.90;;;;;;5086762;28;20119;-61
2023/08/21 12:28:08;;;;;;;4.28;1.30;;;29.60;70.10;;;;;;5104344;28;20052;-60
2023/08/21 12:30:34;;;;;;;4.45;1.17;;;29.50;69.30;;;;;;5103157;28;20435;-61
2023/08/21 12:33:00;;;;;;;3.65;1.40;;;29.30;70.00;;;;;;5104233;28;20072;-58
2023/08/21 12:35:25;;;;;;;7.28;1.58;;;29.00;70.40;;;;;;5086292;28;20123;-61
2023/08/21 12:37:56;;;;;;;5.35;1.30;;;28.90;70.70;;;;;;5103797;28;20420;-61
2023/08/21 12:40:21;;;;;;;6.82;1.30;;;28.90;71.60;;;;;;5104992;28;20036;-59
2023/08/21 12:42:47;;;;;;;6.00;1.30;;;28.90;72.60;;;;;;5105160;28;20553;-61
2023/08/21 12:45:13;;;;;;;4.35;1.27;;;29.00;71.40;;;;;;5103427;28;20036;-59